createdAt,value
2023-04-10T00:01:53.402Z,100851.06
2023-04-10T00:04:24.104Z,100845.62
2023-04-10T00:06:53.735Z,100847.55
2023-04-10T00:09:23.171Z,100844.16
2023-04-10T00:11:53.579Z,100846.56
2023-04-10T00:14:22.925Z,100846.94
2023-04-10T00:16:55.229Z,100852.75
2023-04-10T00:19:24.718Z,100847.27
2023-04-10T00:21:53.975Z,100847.98
2023-04-10T00:24:24.647Z,100840.80
2023-04-10T00:26:57.131Z,100840.80
2023-04-10T00:29:27.010Z,100841.64
2023-04-10T00:31:58.511Z,100844.57
2023-04-10T00:34:27.488Z,100842.02
2023-04-10T00:36:57.056Z,100835.69
2023-04-10T00:39:27.691Z,100835.88
2023-04-10T00:41:59.045Z,100840.36
2023-04-10T00:44:28.778Z,100840.87
2023-04-10T00:46:58.173Z,100837.80
2023-04-10T00:49:27.571Z,100841.73
2023-04-10T00:51:58.341Z,100839.98
2023-04-10T00:54:29.038Z,100836.20
2023-04-10T00:56:58.916Z,100839.98
2023-04-10T00:59:28.091Z,100846.87
2023-04-10T01:01:57.661Z,100835.44
2023-04-10T01:04:28.740Z,100838.70
2023-04-10T01:07:19.755Z,100841.30
2023-04-10T01:10:11.839Z,100840.11
2023-04-10T01:13:20.985Z,100831.94
2023-04-10T01:16:18.366Z,100840.53
2023-04-10T01:19:17.040Z,100839.86
2023-04-10T01:21:45.985Z,100830.27
2023-04-10T01:24:37.146Z,100824.94
2023-04-10T01:27:35.128Z,100831.13
2023-04-10T01:30:06.558Z,100830.80
2023-04-10T01:32:37.093Z,100835.28
2023-04-10T01:35:07.855Z,100834.98
2023-04-10T01:37:43.634Z,100832.77
2023-04-10T01:40:15.347Z,100829.69
2023-04-10T01:42:56.071Z,100834.65
2023-04-10T01:45:28.918Z,100833.95
2023-04-10T01:47:57.887Z,100835.84
2023-04-10T01:50:28.467Z,100830.36
2023-04-10T01:52:57.253Z,100830.69
2023-04-10T01:55:29.187Z,100834.09
2023-04-10T01:58:01.278Z,100841.80
2023-04-10T02:00:41.937Z,100843.02
2023-04-10T02:03:12.601Z,100835.84
2023-04-10T02:06:17.767Z,100836.69
2023-04-10T02:08:55.866Z,100836.50
2023-04-10T02:11:58.181Z,100838.53
2023-04-10T02:14:31.766Z,100838.72
2023-04-10T02:17:01.243Z,100841.65
2023-04-10T02:19:32.051Z,100834.28
2023-04-10T02:22:04.063Z,100833.43
2023-04-10T02:24:35.334Z,100840.09
2023-04-10T02:27:04.633Z,100842.16
2023-04-10T02:29:35.679Z,100845.09
2023-04-10T02:32:06.116Z,100836.87
2023-04-10T02:34:35.028Z,100848.49
2023-04-10T02:37:05.439Z,100841.31
2023-04-10T02:39:34.840Z,100851.27
2023-04-10T02:42:04.242Z,100849.05
2023-04-10T02:44:33.892Z,100844.80
2023-04-10T02:47:03.349Z,100850.97
2023-04-10T02:49:34.912Z,100845.83
2023-04-10T02:52:07.947Z,100849.60
2023-04-10T02:54:39.961Z,100852.34
2023-04-10T02:57:09.371Z,100849.94
2023-04-10T02:59:39.811Z,100852.16
2023-04-10T03:02:09.270Z,100854.52
2023-04-10T03:04:39.464Z,100852.16
2023-04-10T03:07:09.015Z,100849.42
2023-04-10T03:09:40.726Z,100846.34
2023-04-10T03:12:10.395Z,100849.23
2023-04-10T03:14:41.418Z,100845.27
2023-04-10T03:17:12.285Z,100851.75
2023-04-10T03:19:41.333Z,100855.01
2023-04-10T03:22:11.275Z,100854.16
2023-04-10T03:24:42.235Z,100846.80
2023-04-10T03:27:12.831Z,100855.38
2023-04-10T03:29:44.026Z,100850.60
2023-04-10T03:32:13.061Z,100852.83
2023-04-10T03:34:43.342Z,100851.45
2023-04-10T03:37:12.566Z,100848.38
2023-04-10T03:39:43.172Z,100855.56
2023-04-10T03:42:14.403Z,100855.71
2023-04-10T03:44:43.928Z,100861.86
2023-04-10T03:47:13.435Z,100861.00
2023-04-10T03:49:46.343Z,100860.81
2023-04-10T03:52:17.520Z,100860.30
2023-04-10T03:54:46.817Z,100865.11
2023-04-10T03:57:21.553Z,100869.22
2023-04-10T03:59:52.022Z,100870.41
2023-04-10T04:02:21.222Z,100866.81
2023-04-10T04:04:50.861Z,100869.73
2023-04-10T04:07:25.858Z,100870.78
2023-04-10T04:10:00.487Z,100875.59
2023-04-10T04:12:31.939Z,100882.62
2023-04-10T04:15:03.860Z,100877.17
2023-04-10T04:17:42.425Z,100880.39
2023-04-10T04:20:13.099Z,100872.55
2023-04-10T04:22:47.785Z,100878.88
2023-04-10T04:25:35.917Z,100880.25
2023-04-10T04:28:16.220Z,100887.06
2023-04-10T04:30:47.720Z,100882.28
2023-04-10T04:33:21.206Z,100880.91
2023-04-10T04:36:05.388Z,100883.84
2023-04-10T04:38:39.562Z,100890.69
2023-04-10T04:41:29.480Z,100892.23
2023-04-10T04:44:19.828Z,100888.13
2023-04-10T04:47:03.442Z,100890.16
2023-04-10T04:49:51.636Z,100897.53
2023-04-10T04:52:34.800Z,100894.45
2023-04-10T04:55:08.877Z,100900.45
2023-04-10T04:57:50.541Z,100899.93
2023-04-10T05:00:24.260Z,100902.82
2023-04-10T05:02:57.821Z,100906.05
2023-04-10T05:05:42.475Z,100902.61
2023-04-10T05:08:20.619Z,100905.16
2023-04-10T05:11:08.821Z,100901.57
2023-04-10T05:13:42.932Z,100906.20
2023-04-10T05:16:26.144Z,100910.64
2023-04-10T05:19:10.663Z,100912.71
2023-04-10T05:22:01.934Z,100918.03
2023-04-10T05:24:44.755Z,100919.74
2023-04-10T05:27:22.589Z,100921.96
2023-04-10T05:30:11.269Z,100917.86
2023-04-10T05:32:42.314Z,100920.56
2023-04-10T05:35:31.150Z,100920.53
2023-04-10T05:38:01.981Z,100921.19
2023-04-10T05:40:48.262Z,100924.75
2023-04-10T05:43:18.847Z,100916.68
2023-04-10T05:45:55.825Z,100924.56
2023-04-10T05:48:31.038Z,100930.89
2023-04-10T05:51:09.767Z,100928.67
2023-04-10T05:53:41.710Z,100925.75
2023-04-10T05:56:15.446Z,100932.78
2023-04-10T05:58:50.137Z,100940.30
2023-04-10T06:01:21.520Z,100931.42
2023-04-10T06:03:52.415Z,100935.19
2023-04-10T06:06:22.229Z,100933.67
2023-04-10T06:08:52.181Z,100937.78
2023-04-10T06:11:21.555Z,100943.78
2023-04-10T06:13:53.615Z,100939.86
2023-04-10T06:16:25.851Z,100938.15
2023-04-10T06:18:58.301Z,100943.78
2023-04-10T06:21:27.484Z,100942.92
2023-04-10T06:23:57.287Z,100948.56
2023-04-10T06:26:26.935Z,100949.22
2023-04-10T06:28:56.919Z,100948.56
2023-04-10T06:31:28.116Z,100952.33
2023-04-10T06:34:01.188Z,100943.78
2023-04-10T06:36:31.378Z,100951.33
2023-04-10T06:39:04.367Z,100946.00
2023-04-10T06:41:34.104Z,100944.45
2023-04-10T06:44:12.800Z,100944.93
2023-04-10T06:46:42.488Z,100951.08
2023-04-10T06:49:11.408Z,100948.67
2023-04-10T06:51:41.134Z,100951.23
2023-04-10T06:54:10.205Z,100946.08
2023-04-10T06:56:39.602Z,100949.89
2023-04-10T06:59:08.699Z,100949.22
2023-04-10T07:01:37.757Z,100958.63
2023-04-10T07:04:09.134Z,100960.52
2023-04-10T07:06:39.711Z,100957.78
2023-04-10T07:09:10.136Z,100961.92
2023-04-10T07:11:39.430Z,100962.44
2023-04-10T07:14:08.756Z,100960.55
2023-04-10T07:16:37.921Z,100966.36
2023-04-10T07:19:07.431Z,100965.36
2023-04-10T07:21:36.921Z,100971.17
2023-04-10T07:24:07.720Z,100970.84
2023-04-10T07:26:36.707Z,100966.91
2023-04-10T07:29:05.613Z,100960.25
2023-04-10T07:31:35.838Z,100972.73
2023-04-10T07:34:05.686Z,100965.55
2023-04-10T07:36:34.608Z,100969.50
2023-04-10T07:39:04.306Z,100970.20
2023-04-10T07:41:33.216Z,100972.97
2023-04-10T07:44:02.003Z,100973.82
2023-04-10T07:46:31.127Z,100974.52
2023-04-10T07:49:00.244Z,100980.69
2023-04-10T07:51:29.795Z,100986.87
2023-04-10T07:53:59.280Z,100990.80
2023-04-10T07:56:31.388Z,100982.40
2023-04-10T07:59:01.083Z,100981.03
2023-04-10T08:01:30.133Z,100983.25
2023-04-10T08:04:00.612Z,100989.43
2023-04-10T08:06:32.518Z,100982.06
2023-04-10T08:09:01.628Z,100983.25
2023-04-10T08:11:37.395Z,100983.77
2023-04-10T08:14:06.906Z,100984.25
2023-04-10T08:16:38.911Z,100981.34
2023-04-10T08:19:08.292Z,100977.72
2023-04-10T08:21:37.682Z,100994.46
2023-04-10T08:24:06.858Z,100985.20
2023-04-10T08:26:35.561Z,100988.95
2023-04-10T08:29:04.970Z,100988.25
2023-04-10T08:31:34.457Z,100990.99
2023-04-10T08:34:05.052Z,100988.41
2023-04-10T08:36:35.803Z,100984.62
2023-04-10T08:39:05.501Z,100994.40
2023-04-10T08:41:36.129Z,100982.07
2023-04-10T08:44:07.324Z,100984.96
2023-04-10T08:46:37.828Z,100984.11
2023-04-10T08:49:08.666Z,100983.08
2023-04-10T08:51:59.015Z,100979.84
2023-04-10T08:54:30.750Z,100988.25
2023-04-10T08:57:01.132Z,100990.96
2023-04-10T08:59:31.141Z,100987.52
2023-04-10T09:02:01.651Z,100983.22
2023-04-10T09:04:32.431Z,100987.00
2023-04-10T09:07:02.031Z,100984.45
2023-04-10T09:09:35.219Z,100989.25
2023-04-10T09:12:06.746Z,100990.11
2023-04-10T09:14:36.369Z,100991.66
2023-04-10T09:17:23.591Z,100988.73
2023-04-10T09:19:55.319Z,100985.30
2023-04-10T09:22:35.080Z,100982.37
2023-04-10T09:25:07.136Z,100994.30
2023-04-10T09:27:37.373Z,100995.88
2023-04-10T09:30:08.225Z,100991.09
2023-04-10T09:32:44.003Z,100986.89
2023-04-10T09:35:15.462Z,100984.83
2023-04-10T09:37:47.588Z,100990.13
2023-04-10T09:40:24.442Z,100989.23
2023-04-10T09:42:55.886Z,100979.42
2023-04-10T09:45:24.736Z,100987.97
2023-04-10T09:48:08.612Z,100984.25
2023-04-10T09:50:40.739Z,100984.91
2023-04-10T09:53:21.628Z,100975.82
2023-04-10T09:55:50.968Z,100984.58
2023-04-10T09:58:20.643Z,100974.64
2023-04-10T10:00:59.151Z,100974.50
2023-04-10T10:03:29.378Z,100974.04
2023-04-10T10:05:58.625Z,100976.59
2023-04-10T10:08:28.694Z,100974.84
2023-04-10T10:10:59.479Z,100976.20
2023-04-10T10:13:45.748Z,100973.59
2023-04-10T10:16:27.428Z,100978.18
2023-04-10T10:19:08.318Z,100973.09
2023-04-10T10:21:38.384Z,100968.72
2023-04-10T10:24:09.255Z,100978.53
2023-04-10T10:26:40.005Z,100978.25
2023-04-10T10:29:14.510Z,100970.91
2023-04-10T10:31:45.312Z,100967.70
2023-04-10T10:34:14.119Z,100965.55
2023-04-10T10:36:42.689Z,100967.90
2023-04-10T10:40:04.726Z,100966.19
2023-04-10T10:42:43.002Z,100966.17
2023-04-10T10:45:40.430Z,100968.38
2023-04-10T10:48:16.092Z,100971.66
2023-04-10T10:51:00.973Z,100962.55
2023-04-10T10:53:34.487Z,100958.55
2023-04-10T10:56:26.907Z,100961.95
2023-04-10T10:59:01.845Z,100960.41
2023-04-10T11:01:32.736Z,100961.71
2023-04-10T11:04:05.532Z,100962.08
2023-04-10T11:06:52.214Z,100954.63
2023-04-10T11:09:53.141Z,100962.08
2023-04-10T11:12:30.242Z,100963.30
2023-04-10T11:15:05.108Z,100959.41
2023-04-10T11:17:52.472Z,100966.63
2023-04-10T11:20:24.704Z,100959.02
2023-04-10T11:23:16.755Z,100959.02
2023-04-10T11:25:54.374Z,100956.98
2023-04-10T11:28:40.272Z,100955.28
2023-04-10T11:31:23.154Z,100957.23
2023-04-10T11:34:04.188Z,100950.55
2023-04-10T11:36:43.868Z,100956.70
2023-04-10T11:39:14.096Z,100956.09
2023-04-10T11:41:45.639Z,100949.45
2023-04-10T11:44:19.991Z,100952.33
2023-04-10T11:46:50.447Z,100952.44
2023-04-10T11:49:26.239Z,100944.30
2023-04-10T11:51:55.151Z,100935.92
2023-04-10T11:54:28.023Z,100936.98
2023-04-10T11:57:03.382Z,100937.63
2023-04-10T11:59:33.942Z,100937.09
2023-04-10T12:02:07.869Z,100934.87
2023-04-10T12:04:37.489Z,100941.75
2023-04-10T12:07:10.219Z,100940.98
2023-04-10T12:09:39.193Z,100953.42
2023-04-10T12:12:10.859Z,100947.64
2023-04-10T12:14:42.922Z,100943.02
2023-04-10T12:17:13.130Z,100942.78
2023-04-10T12:19:43.687Z,100943.02
2023-04-10T12:22:15.105Z,100932.22
2023-04-10T12:24:51.914Z,100941.53
2023-04-10T12:27:28.537Z,100934.12
2023-04-10T12:29:58.498Z,100927.56
2023-04-10T12:32:27.830Z,100926.11
2023-04-10T12:34:58.657Z,100923.44
2023-04-10T12:37:54.400Z,100912.88
2023-04-10T12:40:26.882Z,100909.72
2023-04-10T12:42:56.181Z,100901.37
2023-04-10T12:45:44.131Z,100903.95
2023-04-10T12:48:13.312Z,100904.52
2023-04-10T12:50:49.875Z,100902.73
2023-04-10T12:53:19.645Z,100904.31
2023-04-10T12:56:02.438Z,100903.88
2023-04-10T12:58:33.519Z,100912.53
2023-04-10T13:01:07.018Z,100904.98
2023-04-10T13:03:38.480Z,100905.95
2023-04-10T13:06:09.000Z,100920.04
2023-04-10T13:08:38.807Z,100933.67
2023-04-10T13:11:09.949Z,100932.47
2023-04-10T13:13:39.903Z,100924.25
2023-04-10T13:16:12.067Z,100923.70
2023-04-10T13:18:40.969Z,100926.39
2023-04-10T13:21:10.951Z,100916.44
2023-04-10T13:23:42.497Z,100921.53
2023-04-10T13:26:11.530Z,100920.55
2023-04-10T13:28:41.522Z,100913.02
2023-04-10T13:31:10.668Z,100916.81
2023-04-10T13:33:39.247Z,100913.61
2023-04-10T13:36:09.789Z,100905.23
2023-04-10T13:38:38.864Z,100907.32
2023-04-10T13:41:08.985Z,100898.04
2023-04-10T13:43:38.675Z,100893.07
2023-04-10T13:46:08.026Z,100884.83
2023-04-10T13:48:41.390Z,100880.33
2023-04-10T13:51:10.236Z,100877.05
2023-04-10T13:53:42.314Z,100874.64
2023-04-10T13:56:12.759Z,100871.17
2023-04-10T13:58:42.173Z,100873.53
2023-04-10T14:01:13.508Z,100874.19
2023-04-10T14:03:43.757Z,100866.93
2023-04-10T14:06:14.423Z,100870.53
2023-04-10T14:08:44.352Z,100870.00
2023-04-10T14:11:13.217Z,100871.70
2023-04-10T14:13:42.612Z,100862.55
2023-04-10T14:16:12.236Z,100861.56
2023-04-10T14:18:41.426Z,100854.04
2023-04-10T14:21:12.919Z,100848.42
2023-04-10T14:23:43.880Z,100852.66
2023-04-10T14:26:13.917Z,100850.41
2023-04-10T14:28:46.053Z,100853.52
2023-04-10T14:31:15.230Z,100848.40
2023-04-10T14:33:44.624Z,100846.30
2023-04-10T14:36:14.914Z,100852.89
2023-04-10T14:38:44.073Z,100851.23
2023-04-10T14:41:14.616Z,100847.34
2023-04-10T14:43:44.777Z,100841.12
2023-04-10T14:46:15.167Z,100838.52
2023-04-10T14:48:44.255Z,100837.27
2023-04-10T14:51:15.106Z,100829.33
2023-04-10T14:53:46.107Z,100831.03
2023-04-10T14:56:15.918Z,100822.58
2023-04-10T14:58:46.972Z,100821.93
2023-04-10T15:01:17.425Z,100830.50
2023-04-10T15:03:51.085Z,100813.91
2023-04-10T15:06:21.580Z,100806.09
2023-04-10T15:08:50.646Z,100805.31
2023-04-10T15:11:21.315Z,100806.19
2023-04-10T15:13:52.113Z,100803.67
2023-04-10T15:16:22.183Z,100808.55
2023-04-10T15:18:53.406Z,100807.00
2023-04-10T15:21:27.458Z,100813.26
2023-04-10T15:23:58.868Z,100805.96
2023-04-10T15:26:29.423Z,100802.17
2023-04-10T15:28:59.731Z,100789.09
2023-04-10T15:31:29.874Z,100796.20
2023-04-10T15:33:59.266Z,100788.36
2023-04-10T15:36:28.886Z,100790.27
2023-04-10T15:39:03.251Z,100785.70
2023-04-10T15:41:34.194Z,100787.51
2023-04-10T15:44:03.241Z,100788.98
2023-04-10T15:46:34.273Z,100784.70
2023-04-10T15:49:06.914Z,100781.94
2023-04-10T15:51:36.307Z,100783.41
2023-04-10T15:54:08.344Z,100780.55
2023-04-10T15:56:38.130Z,100785.82
2023-04-10T15:59:08.172Z,100780.41
2023-04-10T16:01:38.516Z,100784.20
2023-04-10T16:04:09.929Z,100776.13
2023-04-10T16:06:40.750Z,100778.00
2023-04-10T16:09:24.306Z,100775.84
2023-04-10T16:11:42.432Z,100773.17
2023-04-10T16:14:12.287Z,100768.81
2023-04-10T16:16:43.762Z,100772.67
2023-04-10T16:19:14.306Z,100772.76
2023-04-10T16:21:43.584Z,100770.42
2023-04-10T16:24:13.050Z,100772.20
2023-04-10T16:26:43.520Z,100768.56
2023-04-10T16:29:12.876Z,100778.48
2023-04-10T16:31:41.725Z,100775.69
2023-04-10T16:34:10.635Z,100773.95
2023-04-10T16:36:40.060Z,100768.86
2023-04-10T16:39:10.888Z,100776.13
2023-04-10T16:41:41.739Z,100781.91
2023-04-10T16:44:10.715Z,100781.47
2023-04-10T16:46:42.226Z,100787.89
2023-04-10T16:49:11.149Z,100782.27
2023-04-10T16:51:40.101Z,100776.64
2023-04-10T16:54:08.941Z,100777.38
2023-04-10T16:56:38.456Z,100784.61
2023-04-10T16:59:10.186Z,100780.56
2023-04-10T17:01:42.307Z,100782.02
2023-04-10T17:04:11.419Z,100782.94
2023-04-10T17:06:41.309Z,100786.48
2023-04-10T17:09:10.242Z,100781.91
2023-04-10T17:11:39.594Z,100779.55
2023-04-10T17:14:10.091Z,100780.80
2023-04-10T17:16:39.615Z,100788.39
2023-04-10T17:19:09.860Z,100782.97
2023-04-10T17:21:39.009Z,100795.72
2023-04-10T17:24:10.612Z,100793.77
2023-04-10T17:26:40.641Z,100793.83
2023-04-10T17:29:09.753Z,100796.64
2023-04-10T17:31:39.189Z,100791.91
2023-04-10T17:34:09.408Z,100792.16
2023-04-10T17:36:39.786Z,100788.93
2023-04-10T17:39:09.082Z,100791.55
2023-04-10T17:41:37.772Z,100791.08
2023-04-10T17:44:07.996Z,100801.73
2023-04-10T17:46:37.536Z,100798.33
2023-04-10T17:49:08.076Z,100801.60
2023-04-10T17:51:40.718Z,100802.84
2023-04-10T17:54:10.479Z,100805.06
2023-04-10T17:56:39.256Z,100811.07
2023-04-10T17:59:10.163Z,100801.14
2023-04-10T18:01:39.588Z,100809.23
2023-04-10T18:04:09.449Z,100805.18
2023-04-10T18:06:38.361Z,100806.42
2023-04-10T18:09:07.297Z,100801.52
2023-04-10T18:11:36.254Z,100801.05
2023-04-10T18:14:07.940Z,100799.54
2023-04-10T18:16:38.271Z,100803.33
2023-04-10T18:19:07.162Z,100807.64
2023-04-10T18:21:37.665Z,100807.83
2023-04-10T18:24:07.879Z,100803.39
2023-04-10T18:26:36.613Z,100806.45
2023-04-10T18:29:05.594Z,100810.77
2023-04-10T18:31:35.890Z,100808.41
2023-04-10T18:34:08.285Z,100809.97
2023-04-10T18:36:35.629Z,100811.20
2023-04-10T18:39:05.066Z,100804.59
2023-04-10T18:41:36.022Z,100809.28
2023-04-10T18:44:06.124Z,100805.03
2023-04-10T18:46:38.482Z,100809.14
2023-04-10T18:49:09.073Z,100806.08
2023-04-10T18:51:40.396Z,100806.27
2023-04-10T18:54:09.853Z,100806.09
2023-04-10T18:56:39.965Z,100806.47
2023-04-10T18:59:10.482Z,100810.12
2023-04-10T19:01:41.304Z,100813.57
2023-04-10T19:04:12.002Z,100810.17
2023-04-10T19:06:43.532Z,100816.55
2023-04-10T19:09:13.294Z,100816.94
2023-04-10T19:11:42.851Z,100810.45
2023-04-10T19:14:13.387Z,100817.17
2023-04-10T19:16:43.386Z,100818.07
2023-04-10T19:19:12.278Z,100817.22
2023-04-10T19:21:43.919Z,100819.48
2023-04-10T19:24:13.340Z,100812.54
2023-04-10T19:26:43.561Z,100813.95
2023-04-10T19:29:14.195Z,100811.97
2023-04-10T19:31:45.625Z,100810.45
2023-04-10T19:34:16.178Z,100814.09
2023-04-10T19:36:45.497Z,100808.31
2023-04-10T19:39:14.270Z,100807.13
2023-04-10T19:41:44.453Z,100799.63
2023-04-10T19:44:14.636Z,100797.22
2023-04-10T19:46:45.307Z,100798.91
2023-04-10T19:49:16.394Z,100797.88
2023-04-10T19:51:46.864Z,100797.17
2023-04-10T19:54:16.494Z,100801.42
2023-04-10T19:56:45.765Z,100797.27
2023-04-10T19:59:16.567Z,100798.78
2023-04-10T20:01:46.871Z,100794.62
2023-04-10T20:04:16.556Z,100795.24
2023-04-10T20:06:48.065Z,100800.16
2023-04-10T20:09:18.179Z,100802.52
2023-04-10T20:11:47.656Z,100803.32
2023-04-10T20:14:19.353Z,100804.13
2023-04-10T20:16:48.540Z,100796.04
2023-04-10T20:19:17.402Z,100793.58
2023-04-10T20:21:51.320Z,100793.72
2023-04-10T20:24:20.666Z,100791.45
2023-04-10T20:26:50.832Z,100788.00
2023-04-10T20:29:20.888Z,100785.58
2023-04-10T20:31:50.379Z,100792.44
2023-04-10T20:34:19.428Z,100785.06
2023-04-10T20:36:49.858Z,100787.80
2023-04-10T20:39:19.638Z,100785.25
2023-04-10T20:41:50.378Z,100788.19
2023-04-10T20:44:20.994Z,100782.70
2023-04-10T20:46:50.987Z,100788.00
2023-04-10T20:49:19.819Z,100786.63
2023-04-10T20:51:49.800Z,100785.25
2023-04-10T20:54:19.078Z,100789.69
2023-04-10T20:56:47.735Z,100784.54
2023-04-10T20:59:17.838Z,100782.84
2023-04-10T21:01:47.476Z,100780.62
2023-04-10T21:04:16.747Z,100777.02
2023-04-10T21:06:48.962Z,100774.34
2023-04-10T21:09:17.737Z,100772.30
2023-04-10T21:11:46.517Z,100779.22
2023-04-10T21:14:17.141Z,100772.55
2023-04-10T21:16:46.362Z,100775.48
2023-04-10T21:19:17.266Z,100774.11
2023-04-10T21:21:46.049Z,100778.22
2023-04-10T21:24:18.096Z,100771.04
2023-04-10T21:26:57.572Z,100772.80
2023-04-10T21:29:26.553Z,100767.69
2023-04-10T21:31:55.862Z,100765.98
2023-04-10T21:34:26.385Z,100771.98
2023-04-10T21:36:55.598Z,100771.00
2023-04-10T21:39:25.544Z,100767.98
2023-04-10T21:41:54.690Z,100774.69
2023-04-10T21:44:23.699Z,100779.37
2023-04-10T21:46:52.820Z,100776.30
2023-04-10T21:49:21.888Z,100771.00
2023-04-10T21:51:51.551Z,100778.89
2023-04-10T21:54:21.339Z,100775.30
2023-04-10T21:56:50.395Z,100769.68
2023-04-10T21:59:19.302Z,100773.98
2023-04-10T22:01:48.354Z,100768.03
2023-04-10T22:04:17.238Z,100769.40
2023-04-10T22:06:48.237Z,100767.37
2023-04-10T22:09:17.750Z,100763.63
2023-04-10T22:11:46.841Z,100759.90
2023-04-10T22:14:19.384Z,100752.02
2023-04-10T22:16:49.563Z,100760.95
2023-04-10T22:19:19.806Z,100758.91
2023-04-10T22:21:50.623Z,100758.96
2023-04-10T22:24:19.710Z,100762.07
2023-04-10T22:26:48.793Z,100750.64
2023-04-10T22:29:18.091Z,100742.61
2023-04-10T22:31:46.994Z,100743.66
2023-04-10T22:34:15.965Z,100740.58
2023-04-10T22:36:45.806Z,100745.03
2023-04-10T22:39:15.417Z,100745.02
2023-04-10T22:41:45.951Z,100742.28
2023-04-10T22:44:15.166Z,100744.83
2023-04-10T22:46:47.809Z,100732.88
2023-04-10T22:49:17.138Z,100741.77
2023-04-10T22:51:47.027Z,100736.48
2023-04-10T22:54:17.371Z,100738.04
2023-04-10T22:56:48.718Z,100736.34
2023-04-10T22:59:20.488Z,100736.52
2023-04-10T23:01:49.321Z,100733.27
2023-04-10T23:04:18.196Z,100737.52
2023-04-10T23:06:48.406Z,100738.04
2023-04-10T23:09:17.266Z,100730.20
2023-04-10T23:11:47.710Z,100730.57
2023-04-10T23:14:17.816Z,100723.06
2023-04-10T23:16:47.165Z,100719.84
2023-04-10T23:19:18.796Z,100715.08
2023-04-10T23:21:49.620Z,100715.27
2023-04-10T23:24:18.810Z,100710.31
2023-04-10T23:26:47.640Z,100712.72
2023-04-10T23:29:19.673Z,100708.80
2023-04-10T23:31:49.891Z,100711.20
2023-04-10T23:34:21.474Z,100702.70
2023-04-10T23:36:51.788Z,100704.77
2023-04-10T23:39:22.723Z,100702.41
2023-04-10T23:41:53.290Z,100700.38
2023-04-10T23:44:22.350Z,100700.92
2023-04-10T23:46:51.751Z,100688.28
2023-04-10T23:49:20.662Z,100682.81
2023-04-10T23:51:50.261Z,100685.73
2023-04-10T23:54:20.498Z,100680.45
2023-04-10T23:56:50.806Z,100684.55
2023-04-10T23:59:21.014Z,100675.16
